createdAt,value
2018-03-24T00:06:49.690Z,6.44
2018-03-24T00:09:18.080Z,6.33
2018-03-24T00:11:46.510Z,6.29
2018-03-24T00:14:14.906Z,6.46
2018-03-24T00:16:43.318Z,6.44
2018-03-24T00:37:14.872Z,5.87
2018-03-24T00:39:43.291Z,5.66
2018-03-24T00:42:11.707Z,5.60
2018-03-24T00:44:40.147Z,5.55
2018-03-24T00:47:08.567Z,5.66
2018-03-24T00:49:36.971Z,5.50
2018-03-24T00:52:05.423Z,5.47
2018-03-24T00:54:34.583Z,5.55
2018-03-24T01:15:05.040Z,5.42
2018-03-24T01:17:33.408Z,5.51
2018-03-24T01:20:01.825Z,5.47
2018-03-24T01:22:30.202Z,5.42
2018-03-24T01:24:58.603Z,5.23
2018-03-24T01:27:27.030Z,4.98
2018-03-24T01:29:55.474Z,5.03
2018-03-24T01:32:24.712Z,4.87
2018-03-24T01:52:54.598Z,4.22
2018-03-24T01:55:23.016Z,4.11
2018-03-24T01:57:51.409Z,4.02
2018-03-24T02:00:19.862Z,3.88
2018-03-24T02:02:49.011Z,3.89
2018-03-24T02:05:17.414Z,3.81
2018-03-24T02:07:45.897Z,3.87
2018-03-24T02:10:14.338Z,3.74
2018-03-24T02:12:42.717Z,3.56
2018-03-24T02:15:11.087Z,3.50
2018-03-24T02:17:39.526Z,3.46
2018-03-24T02:20:07.960Z,3.36
2018-03-24T02:22:36.378Z,3.27
2018-03-24T02:25:09.039Z,3.30
2018-03-24T02:27:37.406Z,3.21
2018-03-24T02:30:05.787Z,3.04
2018-03-24T02:32:34.231Z,3.03
2018-03-24T02:35:03.436Z,3.23
2018-03-24T02:37:31.867Z,3.11
2018-03-24T02:58:02.075Z,2.98
2018-03-24T03:00:30.474Z,3.01
2018-03-24T03:02:58.951Z,2.89
2018-03-24T03:05:27.365Z,2.69
2018-03-24T03:07:55.837Z,2.60
2018-03-24T03:10:24.201Z,2.54
2018-03-24T03:12:52.608Z,2.59
2018-03-24T03:15:20.993Z,2.47
2018-03-24T03:17:49.412Z,2.45
2018-03-24T03:20:18.636Z,2.53
2018-03-24T03:22:47.035Z,2.58
2018-03-24T03:25:15.508Z,2.67
2018-03-24T03:27:43.890Z,2.58
2018-03-24T03:30:17.873Z,2.53
2018-03-24T03:32:46.251Z,2.54
2018-03-24T03:35:14.644Z,2.53
2018-03-24T03:37:43.036Z,2.63
2018-03-24T03:40:11.424Z,2.58
2018-03-24T03:42:39.839Z,2.39
2018-03-24T03:45:08.663Z,2.58
2018-03-24T03:47:37.107Z,2.49
2018-03-24T03:50:05.523Z,2.37
2018-03-24T03:52:33.982Z,2.29
2018-03-24T03:55:02.355Z,2.17
2018-03-24T03:57:30.724Z,2.42
2018-03-24T03:59:59.100Z,2.22
2018-03-24T04:02:27.531Z,2.15
2018-03-24T04:04:55.986Z,2.11
2018-03-24T04:07:24.392Z,2.14
2018-03-24T04:09:52.759Z,2.12
2018-03-24T04:12:21.129Z,2.11
2018-03-24T04:14:49.543Z,2.18
2018-03-24T04:17:18.690Z,2.10
2018-03-24T04:19:47.085Z,2.04
2018-03-24T04:22:16.320Z,2.04
2018-03-24T04:24:44.734Z,1.98
2018-03-24T04:27:13.121Z,1.89
2018-03-24T04:29:41.759Z,1.82
2018-03-24T04:32:10.198Z,1.84
2018-03-24T04:34:38.613Z,1.64
2018-03-24T04:37:07.002Z,1.66
2018-03-24T04:57:38.011Z,1.61
2018-03-24T05:00:07.335Z,1.49
2018-03-24T05:02:35.769Z,1.38
2018-03-24T05:05:04.516Z,1.39
2018-03-24T05:07:32.977Z,1.47
2018-03-24T05:10:01.376Z,1.66
2018-03-24T05:12:29.771Z,1.73
2018-03-24T05:33:00.222Z,2.66
2018-03-24T05:35:28.627Z,2.87
2018-03-24T05:37:56.999Z,3.06
2018-03-24T05:40:25.404Z,3.07
2018-03-24T05:42:53.803Z,3.27
2018-03-24T05:45:23.000Z,3.41
2018-03-24T05:47:51.414Z,3.39
2018-03-24T05:50:19.915Z,3.41
2018-03-24T05:52:48.337Z,3.54
2018-03-24T05:55:16.720Z,3.64
2018-03-24T05:57:45.886Z,3.58
2018-03-24T06:00:14.302Z,3.56
2018-03-24T06:02:43.893Z,3.65
2018-03-24T06:11:21.051Z,3.88
2018-03-24T06:13:50.258Z,4.02
2018-03-24T06:16:18.661Z,3.97
2018-03-24T06:18:47.299Z,4.10
2018-03-24T06:21:15.760Z,4.28
2018-03-24T06:23:44.194Z,4.31
2018-03-24T06:26:12.560Z,4.42
2018-03-24T06:28:41.711Z,4.59
2018-03-24T06:31:13.418Z,4.58
2018-03-24T06:33:41.832Z,4.57
2018-03-24T06:36:10.300Z,4.76
2018-03-24T06:38:38.671Z,4.87
2018-03-24T06:41:07.070Z,5.14
2018-03-24T06:43:35.442Z,5.30
2018-03-24T06:46:03.832Z,5.89
2018-03-24T06:48:32.296Z,5.81
2018-03-24T06:51:00.783Z,5.69
2018-03-24T06:53:29.199Z,5.45
2018-03-24T06:55:57.732Z,5.53
2018-03-24T06:58:30.288Z,5.36
2018-03-24T07:00:58.725Z,5.55
2018-03-24T07:03:27.098Z,5.48
2018-03-24T07:05:55.525Z,5.58
2018-03-24T07:08:23.944Z,5.66
2018-03-24T07:10:52.355Z,5.79
2018-03-24T07:13:20.743Z,5.95
2018-03-24T07:15:52.928Z,6.27
2018-03-24T07:18:21.407Z,6.75
2018-03-24T07:20:49.907Z,6.90
2018-03-24T07:23:18.317Z,7.44
2018-03-24T07:25:46.747Z,7.95
2018-03-24T07:28:15.173Z,7.94
2018-03-24T07:30:44.366Z,7.82
2018-03-24T07:33:12.796Z,8.15
2018-03-24T07:35:41.232Z,7.98
2018-03-24T07:38:09.666Z,8.05
2018-03-24T07:40:38.195Z,8.13
2018-03-24T07:43:06.652Z,8.50
2018-03-24T07:45:48.092Z,8.60
2018-03-24T07:48:16.597Z,8.40
2018-03-24T07:50:55.512Z,8.70
2018-03-24T07:53:23.964Z,8.70
2018-03-24T07:55:52.367Z,8.87
2018-03-24T07:58:20.892Z,9.28
2018-03-24T08:00:49.304Z,8.99
2018-03-24T08:03:17.683Z,9.53
2018-03-24T08:05:46.108Z,9.74
2018-03-24T08:08:14.544Z,10.71
2018-03-24T08:10:42.946Z,10.52
2018-03-24T08:13:11.499Z,10.33
2018-03-24T08:15:39.915Z,11.48
2018-03-24T08:18:08.540Z,11.76
2018-03-24T08:20:36.944Z,11.88
2018-03-24T08:23:05.460Z,11.77
2018-03-24T08:25:34.108Z,12.21
2018-03-24T08:28:02.496Z,12.77
2018-03-24T08:31:03.097Z,12.70
2018-03-24T08:33:31.521Z,12.73
2018-03-24T08:36:05.636Z,12.12
2018-03-24T08:38:41.175Z,12.65
2018-03-24T08:41:09.604Z,12.60
2018-03-24T08:43:44.624Z,13.31
2018-03-24T08:46:25.205Z,12.83
2018-03-24T08:49:06.129Z,13.48
2018-03-24T09:01:05.212Z,13.56
2018-03-24T09:03:44.946Z,13.33
2018-03-24T09:06:13.527Z,13.33
2018-03-24T09:15:00.686Z,14.01
2018-03-24T09:17:29.078Z,12.71
2018-03-24T09:19:57.508Z,12.88
2018-03-24T09:22:33.635Z,12.54
2018-03-24T09:25:02.055Z,13.00
2018-03-24T09:27:31.376Z,13.77
2018-03-24T09:29:59.763Z,13.39
2018-03-24T09:32:28.959Z,13.49
2018-03-24T09:34:58.516Z,13.65
2018-03-24T09:37:26.907Z,13.22
2018-03-24T09:39:55.324Z,13.03
2018-03-24T09:42:24.479Z,12.97
2018-03-24T09:44:52.890Z,13.47
2018-03-24T09:47:21.301Z,13.92
2018-03-24T09:49:49.773Z,13.93
2018-03-24T09:52:26.536Z,13.86
2018-03-24T09:54:54.951Z,13.46
2018-03-24T09:57:23.379Z,14.23
2018-03-24T09:59:51.799Z,13.78
2018-03-24T10:05:30.345Z,14.13
2018-03-24T10:08:15.451Z,13.93
2018-03-24T10:10:43.887Z,14.23
2018-03-24T10:13:17.261Z,13.87
2018-03-24T10:15:45.673Z,14.64
2018-03-24T10:18:14.078Z,14.15
2018-03-24T10:24:15.544Z,13.59
2018-03-24T10:26:44.062Z,14.00
2018-03-24T10:29:23.243Z,13.58
2018-03-24T10:31:55.005Z,14.37
2018-03-24T10:34:30.364Z,15.20
2018-03-24T10:36:58.900Z,15.55
2018-03-24T10:39:30.627Z,15.10
2018-03-24T10:42:06.859Z,16.16
2018-03-24T10:44:35.284Z,15.18
2018-03-24T10:47:03.696Z,15.55
2018-03-24T10:49:33.102Z,15.88
2018-03-24T10:52:01.501Z,15.12
2018-03-24T10:54:29.930Z,15.91
2018-03-24T10:56:58.333Z,14.80
2018-03-24T10:59:26.751Z,14.89
2018-03-24T11:01:56.119Z,15.30
2018-03-24T11:04:28.396Z,15.48
2018-03-24T11:06:59.898Z,14.76
2018-03-24T11:09:35.260Z,14.82
2018-03-24T11:12:07.999Z,13.79
2018-03-24T11:14:39.933Z,14.42
2018-03-24T11:17:10.316Z,14.67
2018-03-24T11:19:38.730Z,14.93
2018-03-24T11:22:10.624Z,14.46
2018-03-24T11:24:39.019Z,13.83
2018-03-24T11:27:12.107Z,14.40
2018-03-24T11:29:41.534Z,14.00
2018-03-24T11:32:09.916Z,14.17
2018-03-24T11:37:52.756Z,15.19
2018-03-24T11:40:21.160Z,14.99
2018-03-24T11:42:49.612Z,15.61
2018-03-24T11:45:18.229Z,15.38
2018-03-24T11:59:47.790Z,16.78
2018-03-24T12:02:48.077Z,16.34
2018-03-24T12:05:16.529Z,16.15
2018-03-24T12:08:01.159Z,15.85
2018-03-24T12:10:29.560Z,15.62
2018-03-24T12:12:58.762Z,15.93
2018-03-24T12:15:27.187Z,15.91
2018-03-24T12:17:55.623Z,15.46
2018-03-24T12:20:24.112Z,15.98
2018-03-24T12:22:52.561Z,15.44
2018-03-24T12:25:20.935Z,14.59
2018-03-24T12:27:50.170Z,15.35
2018-03-24T12:30:18.628Z,15.61
2018-03-24T12:32:47.039Z,15.58
2018-03-24T12:35:15.470Z,15.78
2018-03-24T12:37:44.043Z,15.74
2018-03-24T12:40:12.482Z,15.38
2018-03-24T12:42:40.977Z,15.56
2018-03-24T12:45:09.598Z,15.87
2018-03-24T12:47:38.017Z,15.87
2018-03-24T12:53:17.675Z,15.34
2018-03-24T12:55:46.824Z,15.28
2018-03-24T12:58:15.210Z,15.20
2018-03-24T13:01:05.589Z,15.69
2018-03-24T13:03:34.371Z,16.02
2018-03-24T13:06:02.866Z,15.70
2018-03-24T13:08:31.320Z,15.99
2018-03-24T13:10:59.697Z,15.21
2018-03-24T13:13:28.164Z,16.04
2018-03-24T13:15:56.572Z,15.98
2018-03-24T13:18:25.015Z,15.37
2018-03-24T13:20:53.494Z,16.39
2018-03-24T13:23:21.940Z,16.16
2018-03-24T13:25:50.552Z,15.92
2018-03-24T13:28:18.953Z,16.12
2018-03-24T13:30:47.338Z,15.21
2018-03-24T13:33:15.786Z,14.83
2018-03-24T13:35:44.179Z,15.78
2018-03-24T13:38:12.641Z,15.27
2018-03-24T13:40:41.082Z,15.90
2018-03-24T13:43:09.507Z,15.47
2018-03-24T13:45:37.916Z,14.57
2018-03-24T13:48:06.362Z,15.38
2018-03-24T13:50:34.764Z,15.01
2018-03-24T13:53:03.968Z,14.82
2018-03-24T13:55:32.352Z,15.42
2018-03-24T13:58:00.875Z,15.08
2018-03-24T14:00:29.276Z,14.92
2018-03-24T14:02:57.688Z,15.07
2018-03-24T14:05:26.875Z,15.95
2018-03-24T14:07:55.296Z,15.86
2018-03-24T14:10:23.720Z,15.09
2018-03-24T14:12:52.130Z,15.17
2018-03-24T14:15:21.332Z,15.14
2018-03-24T14:17:50.486Z,15.06
2018-03-24T14:20:18.866Z,15.53
2018-03-24T14:22:47.270Z,15.76
2018-03-24T14:25:15.798Z,15.47
2018-03-24T14:27:45.025Z,15.46
2018-03-24T14:30:13.504Z,15.72
2018-03-24T14:32:47.924Z,15.20
2018-03-24T14:35:16.490Z,15.52
2018-03-24T14:37:45.019Z,15.16
2018-03-24T14:40:13.463Z,14.79
2018-03-24T14:42:41.856Z,14.64
2018-03-24T14:45:10.394Z,15.54
2018-03-24T14:47:38.854Z,15.52
2018-03-24T14:50:07.396Z,15.54
2018-03-24T15:01:39.960Z,15.34
2018-03-24T15:04:08.384Z,15.40
2018-03-24T15:06:36.819Z,15.38
2018-03-24T15:09:05.186Z,15.38
2018-03-24T15:11:36.774Z,15.29
2018-03-24T15:17:05.032Z,15.45
2018-03-24T15:19:33.458Z,15.61
2018-03-24T15:22:02.207Z,15.19
2018-03-24T15:24:30.606Z,14.62
2018-03-24T15:26:59.059Z,14.96
2018-03-24T15:29:45.943Z,14.98
2018-03-24T15:32:32.178Z,15.44
2018-03-24T15:38:12.770Z,15.28
2018-03-24T15:40:41.999Z,14.91
2018-03-24T15:43:14.643Z,14.57
2018-03-24T15:45:43.910Z,15.00
2018-03-24T15:48:12.388Z,14.71
2018-03-24T15:50:40.798Z,15.40
2018-03-24T15:53:09.246Z,15.64
2018-03-24T15:55:37.641Z,14.90
2018-03-24T15:58:06.096Z,14.78
2018-03-24T16:00:34.536Z,15.28
2018-03-24T16:12:22.554Z,15.06
2018-03-24T16:14:50.956Z,15.46
2018-03-24T16:17:22.299Z,15.04
2018-03-24T16:19:50.696Z,14.27
2018-03-24T16:22:19.099Z,13.55
2018-03-24T16:24:47.515Z,13.41
2018-03-24T16:27:15.918Z,13.63
2018-03-24T16:29:44.341Z,13.72
2018-03-24T16:32:12.753Z,14.18
2018-03-24T16:34:41.175Z,13.82
2018-03-24T16:37:09.603Z,14.12
2018-03-24T16:39:38.091Z,14.42
2018-03-24T16:42:06.572Z,14.51
2018-03-24T16:44:35.020Z,14.58
2018-03-24T16:47:03.488Z,14.60
2018-03-24T16:49:31.973Z,14.07
2018-03-24T16:52:00.507Z,13.82
2018-03-24T16:54:28.970Z,13.31
2018-03-24T16:56:57.416Z,12.88
2018-03-24T16:59:25.957Z,12.76
2018-03-24T17:01:54.430Z,12.62
2018-03-24T17:04:22.866Z,12.43
2018-03-24T17:06:52.051Z,12.49
2018-03-24T17:09:20.481Z,12.25
2018-03-24T17:11:49.086Z,12.12
2018-03-24T17:14:17.552Z,12.12
2018-03-24T17:16:46.079Z,11.98
2018-03-24T17:19:14.532Z,11.77
2018-03-24T17:21:42.954Z,11.67
2018-03-24T17:24:11.460Z,11.45
2018-03-24T17:26:40.072Z,11.29
2018-03-24T17:29:09.423Z,11.24
2018-03-24T17:31:43.784Z,11.20
2018-03-24T17:34:12.310Z,11.19
2018-03-24T17:36:40.759Z,11.08
2018-03-24T17:39:19.659Z,11.03
2018-03-24T17:41:55.131Z,10.98
2018-03-24T17:44:23.643Z,10.95
2018-03-24T17:46:52.176Z,10.93
2018-03-24T17:49:20.591Z,10.83
2018-03-24T17:51:49.044Z,10.78
2018-03-24T17:54:17.547Z,10.60
2018-03-24T17:56:45.991Z,10.47
2018-03-24T17:59:14.478Z,10.31
2018-03-24T18:01:42.973Z,9.92
2018-03-24T18:04:11.408Z,10.01
2018-03-24T18:06:40.585Z,9.77
2018-03-24T18:09:08.981Z,9.90
2018-03-24T18:11:38.200Z,9.98
2018-03-24T18:14:06.643Z,10.01
2018-03-24T18:16:35.099Z,9.72
2018-03-24T18:19:03.654Z,9.78
2018-03-24T18:21:32.520Z,9.85
2018-03-24T18:24:00.929Z,9.72
2018-03-24T18:26:29.349Z,9.61
2018-03-24T18:28:57.801Z,9.65
2018-03-24T18:31:38.533Z,9.54
2018-03-24T18:34:07.723Z,9.57
2018-03-24T18:36:37.735Z,9.62
2018-03-24T18:39:06.141Z,9.65
2018-03-24T18:41:35.298Z,9.52
2018-03-24T18:44:03.755Z,9.58
2018-03-24T18:46:32.335Z,9.50
2018-03-24T18:49:01.020Z,9.41
2018-03-24T18:51:29.445Z,9.32
2018-03-24T18:53:57.898Z,9.12
2018-03-24T18:56:26.380Z,9.18
2018-03-24T18:58:55.024Z,9.08
2018-03-24T19:01:27.518Z,8.98
2018-03-24T19:03:59.116Z,8.96
2018-03-24T19:06:27.581Z,9.02
2018-03-24T19:08:56.031Z,8.90
2018-03-24T19:11:24.472Z,8.92
2018-03-24T19:13:53.022Z,8.88
2018-03-24T19:16:21.632Z,8.84
2018-03-24T19:18:50.315Z,8.82
2018-03-24T19:21:18.838Z,8.78
2018-03-24T19:23:48.078Z,8.64
2018-03-24T19:26:16.543Z,8.56
2018-03-24T19:28:44.948Z,8.51
2018-03-24T19:31:13.424Z,8.34
2018-03-24T19:33:48.893Z,8.24
2018-03-24T19:36:17.327Z,8.21
2018-03-24T19:38:46.514Z,8.19
2018-03-24T19:41:15.744Z,8.04
2018-03-24T19:43:44.200Z,7.85
2018-03-24T19:46:13.092Z,7.91
2018-03-24T19:48:41.562Z,7.72
2018-03-24T19:51:10.172Z,7.83
2018-03-24T19:53:38.576Z,7.68
2018-03-24T19:56:07.045Z,7.58
2018-03-24T19:58:35.502Z,7.64
2018-03-24T20:01:04.046Z,7.62
2018-03-24T20:03:32.525Z,7.44
2018-03-24T20:06:00.959Z,7.34
2018-03-24T20:08:29.400Z,7.29
2018-03-24T20:10:58.016Z,7.41
2018-03-24T20:13:26.417Z,7.51
2018-03-24T20:15:55.659Z,7.63
2018-03-24T20:18:24.144Z,7.54
2018-03-24T20:20:52.947Z,7.58
2018-03-24T20:23:21.376Z,7.61
2018-03-24T20:25:49.764Z,7.52
2018-03-24T20:28:42.249Z,7.26
2018-03-24T20:31:10.758Z,6.87
2018-03-24T20:33:39.216Z,6.55
2018-03-24T20:36:07.664Z,6.23
2018-03-24T20:38:36.177Z,6.02
2018-03-24T20:41:04.594Z,5.85
2018-03-24T20:43:33.024Z,5.85
2018-03-24T20:46:01.450Z,5.62
2018-03-24T20:48:30.059Z,5.46
2018-03-24T20:50:58.472Z,5.42
2018-03-24T20:53:26.980Z,5.17
2018-03-24T20:55:55.390Z,5.12
2018-03-24T20:58:23.843Z,4.89
2018-03-24T21:00:52.285Z,4.84
2018-03-24T21:03:21.510Z,4.70
2018-03-24T21:05:50.107Z,4.63
2018-03-24T21:08:18.523Z,4.61
2018-03-24T21:10:46.937Z,4.61
2018-03-24T21:13:16.180Z,4.53
2018-03-24T21:15:45.329Z,4.45
2018-03-24T21:18:14.556Z,4.35
2018-03-24T21:20:43.040Z,4.32
2018-03-24T21:23:11.472Z,4.11
2018-03-24T21:25:40.085Z,4.06
2018-03-24T21:28:08.610Z,4.00
2018-03-24T21:30:37.013Z,4.02
2018-03-24T21:33:05.444Z,3.97
2018-03-24T21:35:33.881Z,3.90
2018-03-24T21:38:02.319Z,3.77
2018-03-24T21:40:30.725Z,3.75
2018-03-24T21:42:59.199Z,3.61
2018-03-24T21:45:27.622Z,3.65
2018-03-24T21:47:56.197Z,3.58
2018-03-24T21:50:24.584Z,3.58
2018-03-24T21:52:52.978Z,3.51
2018-03-24T21:55:22.229Z,3.55
2018-03-24T21:57:50.621Z,3.44
2018-03-24T22:00:19.235Z,3.51
2018-03-24T22:02:47.708Z,3.28
2018-03-24T22:05:16.198Z,3.44
2018-03-24T22:07:44.800Z,3.48
2018-03-24T22:10:13.961Z,3.59
2018-03-24T22:12:42.426Z,3.70
2018-03-24T22:15:10.957Z,3.79
2018-03-24T22:17:39.414Z,3.61
2018-03-24T22:20:07.853Z,3.44
2018-03-24T22:22:36.265Z,3.31
2018-03-24T22:25:06.824Z,3.24
2018-03-24T22:27:35.241Z,3.07
2018-03-24T22:30:03.992Z,3.06
2018-03-24T22:32:32.465Z,3.19
2018-03-24T22:35:00.880Z,3.09
2018-03-24T22:37:29.304Z,3.02
2018-03-24T22:39:57.766Z,2.82
2018-03-24T22:42:26.197Z,2.94
2018-03-24T22:44:54.573Z,2.85
2018-03-24T22:47:22.960Z,2.72
2018-03-24T22:49:51.381Z,2.59
2018-03-24T22:52:19.785Z,2.52
2018-03-24T22:54:48.346Z,2.73
2018-03-24T22:57:17.487Z,2.57
2018-03-24T22:59:45.907Z,2.63
2018-03-24T23:02:15.205Z,2.70
2018-03-24T23:04:43.606Z,2.68
2018-03-24T23:07:12.009Z,2.65
2018-03-24T23:09:40.451Z,2.75
2018-03-24T23:12:09.723Z,2.77
2018-03-24T23:14:38.084Z,2.70
2018-03-24T23:17:06.631Z,2.74
2018-03-24T23:19:35.773Z,2.88
2018-03-24T23:22:04.214Z,2.89
2018-03-24T23:24:32.567Z,2.70
2018-03-24T23:27:01.720Z,2.99
2018-03-24T23:29:30.229Z,3.15
2018-03-24T23:31:58.866Z,3.08
2018-03-24T23:34:27.327Z,3.02
2018-03-24T23:36:56.003Z,3.12
2018-03-24T23:39:24.604Z,3.09
2018-03-24T23:41:53.923Z,3.03
2018-03-24T23:44:22.371Z,3.14
2018-03-24T23:46:51.504Z,3.21
2018-03-24T23:49:20.684Z,3.29
2018-03-24T23:51:49.111Z,3.17
2018-03-24T23:54:17.483Z,3.04
2018-03-24T23:56:45.888Z,2.83
2018-03-24T23:59:14.408Z,2.81
